sensor_id;sensor_type;location;lat;lon;timestamp;temperature;humidity
28548;DHT22;68292;49.600;8.746;2023-12-04T00:00:12;9.60;42.60
28548;DHT22;68292;49.600;8.746;2023-12-04T00:02:42;9.60;42.60
28548;DHT22;68292;49.600;8.746;2023-12-04T00:05:11;9.60;42.60
28548;DHT22;68292;49.600;8.746;2023-12-04T00:07:40;9.60;42.60
28548;DHT22;68292;49.600;8.746;2023-12-04T00:10:09;9.60;42.60
28548;DHT22;68292;49.600;8.746;2023-12-04T00:12:38;9.60;42.60
28548;DHT22;68292;49.600;8.746;2023-12-04T00:15:08;9.60;42.60
28548;DHT22;68292;49.600;8.746;2023-12-04T00:17:38;9.60;42.50
28548;DHT22;68292;49.600;8.746;2023-12-04T00:20:08;9.60;42.50
28548;DHT22;68292;49.600;8.746;2023-12-04T00:22:38;9.60;42.50
28548;DHT22;68292;49.600;8.746;2023-12-04T00:25:07;9.60;42.50
28548;DHT22;68292;49.600;8.746;2023-12-04T00:27:36;9.60;42.40
28548;DHT22;68292;49.600;8.746;2023-12-04T00:30:06;9.50;42.40
28548;DHT22;68292;49.600;8.746;2023-12-04T00:32:35;9.50;42.40
28548;DHT22;68292;49.600;8.746;2023-12-04T00:35:06;9.60;42.40
28548;DHT22;68292;49.600;8.746;2023-12-04T00:37:35;9.60;43.00
28548;DHT22;68292;49.600;8.746;2023-12-04T00:40:06;9.60;42.40
28548;DHT22;68292;49.600;8.746;2023-12-04T00:42:36;9.50;42.40
28548;DHT22;68292;49.600;8.746;2023-12-04T00:45:05;9.50;42.40
28548;DHT22;68292;49.600;8.746;2023-12-04T00:47:34;9.60;42.40
28548;DHT22;68292;49.600;8.746;2023-12-04T00:50:06;9.60;42.40
28548;DHT22;68292;49.600;8.746;2023-12-04T00:52:35;9.50;42.20
28548;DHT22;68292;49.600;8.746;2023-12-04T00:55:04;9.50;42.30
28548;DHT22;68292;49.600;8.746;2023-12-04T00:57:34;9.50;42.30
28548;DHT22;68292;49.600;8.746;2023-12-04T01:00:03;9.50;42.30
28548;DHT22;68292;49.600;8.746;2023-12-04T01:02:33;9.50;42.30
28548;DHT22;68292;49.600;8.746;2023-12-04T01:05:04;9.50;42.30
28548;DHT22;68292;49.600;8.746;2023-12-04T01:07:33;9.50;42.30
28548;DHT22;68292;49.600;8.746;2023-12-04T01:10:03;9.50;42.30
28548;DHT22;68292;49.600;8.746;2023-12-04T01:12:33;9.50;42.30
28548;DHT22;68292;49.600;8.746;2023-12-04T01:15:02;9.40;42.20
28548;DHT22;68292;49.600;8.746;2023-12-04T01:17:31;9.40;42.20
28548;DHT22;68292;49.600;8.746;2023-12-04T01:20:00;9.40;42.20
28548;DHT22;68292;49.600;8.746;2023-12-04T01:22:30;9.50;42.30
28548;DHT22;68292;49.600;8.746;2023-12-04T01:25:00;9.50;42.30
28548;DHT22;68292;49.600;8.746;2023-12-04T01:27:30;9.40;42.20
28548;DHT22;68292;49.600;8.746;2023-12-04T01:29:59;9.40;42.20
28548;DHT22;68292;49.600;8.746;2023-12-04T01:32:28;9.40;42.20
28548;DHT22;68292;49.600;8.746;2023-12-04T01:34:57;9.50;42.20
28548;DHT22;68292;49.600;8.746;2023-12-04T01:37:26;9.40;42.20
28548;DHT22;68292;49.600;8.746;2023-12-04T01:39:56;9.40;42.20
28548;DHT22;68292;49.600;8.746;2023-12-04T01:42:25;9.40;42.10
28548;DHT22;68292;49.600;8.746;2023-12-04T01:44:54;9.40;42.20
28548;DHT22;68292;49.600;8.746;2023-12-04T01:47:23;9.40;42.20
28548;DHT22;68292;49.600;8.746;2023-12-04T01:49:52;9.50;42.20
28548;DHT22;68292;49.600;8.746;2023-12-04T01:52:20;9.40;42.10
28548;DHT22;68292;49.600;8.746;2023-12-04T01:54:50;9.40;42.10
28548;DHT22;68292;49.600;8.746;2023-12-04T01:57:20;9.50;42.10
28548;DHT22;68292;49.600;8.746;2023-12-04T01:59:49;9.40;42.00
28548;DHT22;68292;49.600;8.746;2023-12-04T02:02:18;9.50;42.20
28548;DHT22;68292;49.600;8.746;2023-12-04T02:04:48;9.50;42.10
28548;DHT22;68292;49.600;8.746;2023-12-04T02:07:17;9.50;42.10
28548;DHT22;68292;49.600;8.746;2023-12-04T02:09:45;9.50;42.10
28548;DHT22;68292;49.600;8.746;2023-12-04T02:12:15;9.50;42.10
28548;DHT22;68292;49.600;8.746;2023-12-04T02:14:45;9.50;42.00
28548;DHT22;68292;49.600;8.746;2023-12-04T02:17:14;9.50;42.00
28548;DHT22;68292;49.600;8.746;2023-12-04T02:19:44;9.50;42.00
28548;DHT22;68292;49.600;8.746;2023-12-04T02:22:13;9.50;42.00
28548;DHT22;68292;49.600;8.746;2023-12-04T02:24:43;9.50;42.00
28548;DHT22;68292;49.600;8.746;2023-12-04T02:27:15;9.50;41.90
28548;DHT22;68292;49.600;8.746;2023-12-04T02:29:50;9.50;41.90
28548;DHT22;68292;49.600;8.746;2023-12-04T02:32:21;9.50;42.00
28548;DHT22;68292;49.600;8.746;2023-12-04T02:34:50;9.50;42.00
28548;DHT22;68292;49.600;8.746;2023-12-04T02:37:21;9.50;42.00
28548;DHT22;68292;49.600;8.746;2023-12-04T02:39:52;9.60;42.20
28548;DHT22;68292;49.600;8.746;2023-12-04T02:42:22;9.60;42.00
28548;DHT22;68292;49.600;8.746;2023-12-04T02:44:53;9.60;42.00
28548;DHT22;68292;49.600;8.746;2023-12-04T02:47:22;9.60;41.90
28548;DHT22;68292;49.600;8.746;2023-12-04T02:49:51;9.60;41.90
28548;DHT22;68292;49.600;8.746;2023-12-04T02:52:20;9.60;41.90
28548;DHT22;68292;49.600;8.746;2023-12-04T02:54:48;9.60;42.00
28548;DHT22;68292;49.600;8.746;2023-12-04T02:57:18;9.60;41.90
28548;DHT22;68292;49.600;8.746;2023-12-04T02:59:48;9.60;41.80
28548;DHT22;68292;49.600;8.746;2023-12-04T03:02:17;9.60;41.80
28548;DHT22;68292;49.600;8.746;2023-12-04T03:04:46;9.60;41.80
28548;DHT22;68292;49.600;8.746;2023-12-04T03:07:15;9.60;41.80
28548;DHT22;68292;49.600;8.746;2023-12-04T03:09:47;9.60;41.80
28548;DHT22;68292;49.600;8.746;2023-12-04T03:12:17;9.60;41.70
28548;DHT22;68292;49.600;8.746;2023-12-04T03:14:46;9.60;41.70
28548;DHT22;68292;49.600;8.746;2023-12-04T03:17:15;9.60;41.80
28548;DHT22;68292;49.600;8.746;2023-12-04T03:19:43;9.60;41.70
28548;DHT22;68292;49.600;8.746;2023-12-04T03:22:12;9.60;41.70
28548;DHT22;68292;49.600;8.746;2023-12-04T03:24:41;9.60;41.70
28548;DHT22;68292;49.600;8.746;2023-12-04T03:27:10;9.60;41.70
28548;DHT22;68292;49.600;8.746;2023-12-04T03:29:40;9.60;41.80
28548;DHT22;68292;49.600;8.746;2023-12-04T03:32:09;9.60;41.70
28548;DHT22;68292;49.600;8.746;2023-12-04T03:34:37;9.70;41.80
28548;DHT22;68292;49.600;8.746;2023-12-04T03:37:06;9.70;41.70
28548;DHT22;68292;49.600;8.746;2023-12-04T03:39:35;9.60;41.70
28548;DHT22;68292;49.600;8.746;2023-12-04T03:42:04;9.70;41.90
28548;DHT22;68292;49.600;8.746;2023-12-04T03:44:33;9.70;42.00
28548;DHT22;68292;49.600;8.746;2023-12-04T03:47:03;9.70;42.00
28548;DHT22;68292;49.600;8.746;2023-12-04T03:49:32;9.70;42.00
28548;DHT22;68292;49.600;8.746;2023-12-04T03:52:01;9.70;41.90
28548;DHT22;68292;49.600;8.746;2023-12-04T03:54:30;9.80;41.90
28548;DHT22;68292;49.600;8.746;2023-12-04T03:56:58;9.70;41.80
28548;DHT22;68292;49.600;8.746;2023-12-04T03:59:27;9.70;41.80
28548;DHT22;68292;49.600;8.746;2023-12-04T04:01:56;9.70;41.90
28548;DHT22;68292;49.600;8.746;2023-12-04T04:04:26;9.80;42.00
28548;DHT22;68292;49.600;8.746;2023-12-04T04:06:55;9.80;41.90
28548;DHT22;68292;49.600;8.746;2023-12-04T04:09:23;9.80;41.80
28548;DHT22;68292;49.600;8.746;2023-12-04T04:11:52;9.80;41.80
28548;DHT22;68292;49.600;8.746;2023-12-04T04:14:21;9.80;41.70
28548;DHT22;68292;49.600;8.746;2023-12-04T04:16:50;9.80;41.70
28548;DHT22;68292;49.600;8.746;2023-12-04T04:19:19;9.80;41.80
28548;DHT22;68292;49.600;8.746;2023-12-04T04:21:49;9.80;41.80
28548;DHT22;68292;49.600;8.746;2023-12-04T04:24:18;9.80;41.90
28548;DHT22;68292;49.600;8.746;2023-12-04T04:26:46;9.80;42.00
28548;DHT22;68292;49.600;8.746;2023-12-04T04:29:15;9.80;41.90
28548;DHT22;68292;49.600;8.746;2023-12-04T04:31:44;9.80;41.80
28548;DHT22;68292;49.600;8.746;2023-12-04T04:34:12;9.80;41.70
28548;DHT22;68292;49.600;8.746;2023-12-04T04:36:42;9.80;41.70
28548;DHT22;68292;49.600;8.746;2023-12-04T04:39:13;9.80;41.60
28548;DHT22;68292;49.600;8.746;2023-12-04T04:41:42;9.80;41.60
28548;DHT22;68292;49.600;8.746;2023-12-04T04:44:12;9.80;41.80
28548;DHT22;68292;49.600;8.746;2023-12-04T04:46:41;9.80;41.70
28548;DHT22;68292;49.600;8.746;2023-12-04T04:49:09;9.80;41.70
28548;DHT22;68292;49.600;8.746;2023-12-04T04:51:38;9.80;41.70
28548;DHT22;68292;49.600;8.746;2023-12-04T04:54:07;9.80;41.80
28548;DHT22;68292;49.600;8.746;2023-12-04T04:56:37;9.80;41.80
28548;DHT22;68292;49.600;8.746;2023-12-04T04:59:06;9.80;41.90
28548;DHT22;68292;49.600;8.746;2023-12-04T05:01:34;9.90;41.90
28548;DHT22;68292;49.600;8.746;2023-12-04T05:04:03;9.80;41.90
28548;DHT22;68292;49.600;8.746;2023-12-04T05:06:32;9.90;42.00
28548;DHT22;68292;49.600;8.746;2023-12-04T05:09:02;9.90;42.00
28548;DHT22;68292;49.600;8.746;2023-12-04T05:11:31;9.90;42.00
28548;DHT22;68292;49.600;8.746;2023-12-04T05:14:02;9.90;41.90
28548;DHT22;68292;49.600;8.746;2023-12-04T05:16:30;9.90;41.90
28548;DHT22;68292;49.600;8.746;2023-12-04T05:19:00;9.90;41.90
28548;DHT22;68292;49.600;8.746;2023-12-04T05:21:28;9.90;41.90
28548;DHT22;68292;49.600;8.746;2023-12-04T05:23:57;9.90;41.90
28548;DHT22;68292;49.600;8.746;2023-12-04T05:26:26;9.90;41.90
28548;DHT22;68292;49.600;8.746;2023-12-04T05:28:54;9.90;41.90
28548;DHT22;68292;49.600;8.746;2023-12-04T05:31:25;9.90;41.80
28548;DHT22;68292;49.600;8.746;2023-12-04T05:33:53;9.90;41.80
28548;DHT22;68292;49.600;8.746;2023-12-04T05:36:22;9.90;41.90
28548;DHT22;68292;49.600;8.746;2023-12-04T05:38:51;9.90;41.80
28548;DHT22;68292;49.600;8.746;2023-12-04T05:41:22;9.90;41.90
28548;DHT22;68292;49.600;8.746;2023-12-04T05:43:50;9.90;41.90
28548;DHT22;68292;49.600;8.746;2023-12-04T05:46:20;9.90;41.80
28548;DHT22;68292;49.600;8.746;2023-12-04T05:48:50;9.90;41.80
28548;DHT22;68292;49.600;8.746;2023-12-04T05:51:19;9.90;41.80
28548;DHT22;68292;49.600;8.746;2023-12-04T05:53:49;9.90;41.70
28548;DHT22;68292;49.600;8.746;2023-12-04T05:56:18;9.90;41.70
28548;DHT22;68292;49.600;8.746;2023-12-04T05:58:46;10.00;41.70
28548;DHT22;68292;49.600;8.746;2023-12-04T06:01:15;10.00;41.60
28548;DHT22;68292;49.600;8.746;2023-12-04T06:03:44;10.00;41.60
28548;DHT22;68292;49.600;8.746;2023-12-04T06:06:14;10.00;41.60
28548;DHT22;68292;49.600;8.746;2023-12-04T06:08:43;10.00;41.70
28548;DHT22;68292;49.600;8.746;2023-12-04T06:11:12;10.00;41.80
28548;DHT22;68292;49.600;8.746;2023-12-04T06:13:41;10.00;41.80
28548;DHT22;68292;49.600;8.746;2023-12-04T06:16:09;10.00;41.80
28548;DHT22;68292;49.600;8.746;2023-12-04T06:18:38;10.00;41.90
28548;DHT22;68292;49.600;8.746;2023-12-04T06:21:07;10.00;41.90
28548;DHT22;68292;49.600;8.746;2023-12-04T06:23:38;10.10;41.90
28548;DHT22;68292;49.600;8.746;2023-12-04T06:26:09;10.10;41.80
28548;DHT22;68292;49.600;8.746;2023-12-04T06:28:40;10.10;41.70
28548;DHT22;68292;49.600;8.746;2023-12-04T06:31:10;10.10;41.60
28548;DHT22;68292;49.600;8.746;2023-12-04T06:33:40;10.10;41.50
28548;DHT22;68292;49.600;8.746;2023-12-04T06:36:12;10.10;41.40
28548;DHT22;68292;49.600;8.746;2023-12-04T06:38:45;10.10;41.20
28548;DHT22;68292;49.600;8.746;2023-12-04T06:41:16;10.10;41.20
28548;DHT22;68292;49.600;8.746;2023-12-04T06:43:46;10.10;41.40
28548;DHT22;68292;49.600;8.746;2023-12-04T06:46:21;10.10;41.30
28548;DHT22;68292;49.600;8.746;2023-12-04T06:48:54;10.00;41.20
28548;DHT22;68292;49.600;8.746;2023-12-04T06:51:25;10.00;41.10
28548;DHT22;68292;49.600;8.746;2023-12-04T06:53:55;10.00;41.30
28548;DHT22;68292;49.600;8.746;2023-12-04T06:56:24;10.00;41.30
28548;DHT22;68292;49.600;8.746;2023-12-04T06:58:53;10.00;41.30
28548;DHT22;68292;49.600;8.746;2023-12-04T07:01:22;10.00;41.40
28548;DHT22;68292;49.600;8.746;2023-12-04T07:03:51;10.00;41.30
28548;DHT22;68292;49.600;8.746;2023-12-04T07:06:20;10.00;41.20
28548;DHT22;68292;49.600;8.746;2023-12-04T07:08:48;10.00;41.30
28548;DHT22;68292;49.600;8.746;2023-12-04T07:11:19;10.00;41.40
28548;DHT22;68292;49.600;8.746;2023-12-04T07:13:47;10.00;41.30
28548;DHT22;68292;49.600;8.746;2023-12-04T07:16:16;10.00;41.40
28548;DHT22;68292;49.600;8.746;2023-12-04T07:18:45;10.00;41.20
28548;DHT22;68292;49.600;8.746;2023-12-04T07:21:14;10.00;41.20
28548;DHT22;68292;49.600;8.746;2023-12-04T07:23:42;10.00;41.10
28548;DHT22;68292;49.600;8.746;2023-12-04T07:26:11;10.00;41.20
28548;DHT22;68292;49.600;8.746;2023-12-04T07:28:41;10.00;41.10
28548;DHT22;68292;49.600;8.746;2023-12-04T07:31:10;10.00;41.10
28548;DHT22;68292;49.600;8.746;2023-12-04T07:33:39;10.00;41.10
28548;DHT22;68292;49.600;8.746;2023-12-04T07:36:08;10.00;41.00
28548;DHT22;68292;49.600;8.746;2023-12-04T07:38:37;10.00;40.90
28548;DHT22;68292;49.600;8.746;2023-12-04T07:41:06;10.00;40.90
28548;DHT22;68292;49.600;8.746;2023-12-04T07:43:35;10.00;40.90
28548;DHT22;68292;49.600;8.746;2023-12-04T07:46:05;10.00;41.00
28548;DHT22;68292;49.600;8.746;2023-12-04T07:48:35;10.00;40.90
28548;DHT22;68292;49.600;8.746;2023-12-04T07:51:04;10.00;41.00
28548;DHT22;68292;49.600;8.746;2023-12-04T07:53:33;10.00;40.90
28548;DHT22;68292;49.600;8.746;2023-12-04T07:56:02;10.00;40.90
28548;DHT22;68292;49.600;8.746;2023-12-04T07:58:32;10.00;40.90
28548;DHT22;68292;49.600;8.746;2023-12-04T08:01:00;10.00;40.90
28548;DHT22;68292;49.600;8.746;2023-12-04T08:03:31;10.00;40.90
28548;DHT22;68292;49.600;8.746;2023-12-04T08:05:59;10.00;40.80
28548;DHT22;68292;49.600;8.746;2023-12-04T08:08:28;10.00;40.90
28548;DHT22;68292;49.600;8.746;2023-12-04T08:10:58;10.00;40.90
28548;DHT22;68292;49.600;8.746;2023-12-04T08:13:27;10.00;40.90
28548;DHT22;68292;49.600;8.746;2023-12-04T08:15:56;10.00;40.80
28548;DHT22;68292;49.600;8.746;2023-12-04T08:18:25;10.00;40.80
28548;DHT22;68292;49.600;8.746;2023-12-04T08:20:55;10.10;40.80
28548;DHT22;68292;49.600;8.746;2023-12-04T08:23:26;10.10;40.80
28548;DHT22;68292;49.600;8.746;2023-12-04T08:25:55;10.10;40.80
28548;DHT22;68292;49.600;8.746;2023-12-04T08:28:24;10.10;40.90
28548;DHT22;68292;49.600;8.746;2023-12-04T08:30:52;10.10;40.80
28548;DHT22;68292;49.600;8.746;2023-12-04T08:33:21;10.10;40.80
28548;DHT22;68292;49.600;8.746;2023-12-04T08:35:50;10.10;40.80
28548;DHT22;68292;49.600;8.746;2023-12-04T08:38:20;10.20;40.80
28548;DHT22;68292;49.600;8.746;2023-12-04T08:40:49;10.20;40.70
28548;DHT22;68292;49.600;8.746;2023-12-04T08:43:18;10.20;40.70
28548;DHT22;68292;49.600;8.746;2023-12-04T08:45:47;10.20;40.80
28548;DHT22;68292;49.600;8.746;2023-12-04T08:48:16;10.20;40.80
28548;DHT22;68292;49.600;8.746;2023-12-04T08:50:45;10.20;40.90
28548;DHT22;68292;49.600;8.746;2023-12-04T08:53:14;10.30;40.90
28548;DHT22;68292;49.600;8.746;2023-12-04T08:55:45;10.30;40.90
28548;DHT22;68292;49.600;8.746;2023-12-04T08:58:14;10.30;40.90
28548;DHT22;68292;49.600;8.746;2023-12-04T09:00:43;10.40;40.90
28548;DHT22;68292;49.600;8.746;2023-12-04T09:03:11;10.40;40.80
28548;DHT22;68292;49.600;8.746;2023-12-04T09:05:52;10.40;40.70
28548;DHT22;68292;49.600;8.746;2023-12-04T09:08:22;10.40;40.70
28548;DHT22;68292;49.600;8.746;2023-12-04T09:11:05;10.40;40.60
28548;DHT22;68292;49.600;8.746;2023-12-04T09:13:37;10.50;40.60
28548;DHT22;68292;49.600;8.746;2023-12-04T09:16:07;10.50;40.60
28548;DHT22;68292;49.600;8.746;2023-12-04T09:18:36;10.50;40.50
28548;DHT22;68292;49.600;8.746;2023-12-04T09:21:05;10.50;40.50
28548;DHT22;68292;49.600;8.746;2023-12-04T09:23:35;10.50;40.40
28548;DHT22;68292;49.600;8.746;2023-12-04T09:26:06;10.50;40.40
28548;DHT22;68292;49.600;8.746;2023-12-04T09:28:35;10.60;40.40
28548;DHT22;68292;49.600;8.746;2023-12-04T09:31:05;10.60;40.30
28548;DHT22;68292;49.600;8.746;2023-12-04T09:33:34;10.60;40.40
28548;DHT22;68292;49.600;8.746;2023-12-04T09:36:04;10.60;40.40
28548;DHT22;68292;49.600;8.746;2023-12-04T09:38:33;10.60;40.20
28548;DHT22;68292;49.600;8.746;2023-12-04T09:41:05;10.60;40.30
28548;DHT22;68292;49.600;8.746;2023-12-04T09:43:35;10.60;40.20
28548;DHT22;68292;49.600;8.746;2023-12-04T09:46:04;10.60;40.20
28548;DHT22;68292;49.600;8.746;2023-12-04T09:48:34;10.70;40.20
28548;DHT22;68292;49.600;8.746;2023-12-04T09:51:04;10.70;40.20
28548;DHT22;68292;49.600;8.746;2023-12-04T09:53:33;10.70;40.20
28548;DHT22;68292;49.600;8.746;2023-12-04T09:56:06;10.70;40.10
28548;DHT22;68292;49.600;8.746;2023-12-04T09:58:40;10.70;40.20
28548;DHT22;68292;49.600;8.746;2023-12-04T10:01:08;10.70;40.00
28548;DHT22;68292;49.600;8.746;2023-12-04T10:03:38;10.70;40.10
28548;DHT22;68292;49.600;8.746;2023-12-04T10:06:08;10.70;40.10
28548;DHT22;68292;49.600;8.746;2023-12-04T10:08:37;10.70;40.10
28548;DHT22;68292;49.600;8.746;2023-12-04T10:11:08;10.70;40.20
28548;DHT22;68292;49.600;8.746;2023-12-04T10:13:36;10.70;40.10
28548;DHT22;68292;49.600;8.746;2023-12-04T10:16:32;10.60;40.10
28548;DHT22;68292;49.600;8.746;2023-12-04T10:19:18;10.70;40.00
28548;DHT22;68292;49.600;8.746;2023-12-04T10:21:49;10.60;40.00
28548;DHT22;68292;49.600;8.746;2023-12-04T10:24:30;10.70;40.20
28548;DHT22;68292;49.600;8.746;2023-12-04T10:27:03;10.70;40.00
28548;DHT22;68292;49.600;8.746;2023-12-04T10:29:41;10.70;40.80
28548;DHT22;68292;49.600;8.746;2023-12-04T10:32:11;10.70;40.00
28548;DHT22;68292;49.600;8.746;2023-12-04T10:34:41;10.70;40.30
28548;DHT22;68292;49.600;8.746;2023-12-04T10:37:10;10.70;40.30
28548;DHT22;68292;49.600;8.746;2023-12-04T10:39:47;10.70;40.40
28548;DHT22;68292;49.600;8.746;2023-12-04T10:42:28;10.70;40.50
28548;DHT22;68292;49.600;8.746;2023-12-04T10:44:58;10.80;40.60
28548;DHT22;68292;49.600;8.746;2023-12-04T10:47:29;10.80;40.80
28548;DHT22;68292;49.600;8.746;2023-12-04T10:50:00;10.80;40.90
28548;DHT22;68292;49.600;8.746;2023-12-04T10:52:30;10.90;41.00
28548;DHT22;68292;49.600;8.746;2023-12-04T10:55:00;10.90;41.00
28548;DHT22;68292;49.600;8.746;2023-12-04T10:57:37;10.90;41.00
28548;DHT22;68292;49.600;8.746;2023-12-04T11:00:09;11.00;40.70
28548;DHT22;68292;49.600;8.746;2023-12-04T11:02:42;11.00;40.90
28548;DHT22;68292;49.600;8.746;2023-12-04T11:05:16;11.10;41.00
28548;DHT22;68292;49.600;8.746;2023-12-04T11:07:48;11.10;40.90
28548;DHT22;68292;49.600;8.746;2023-12-04T11:10:45;11.10;40.90
28548;DHT22;68292;49.600;8.746;2023-12-04T11:13:26;11.10;41.40
28548;DHT22;68292;49.600;8.746;2023-12-04T11:15:59;11.20;40.70
28548;DHT22;68292;49.600;8.746;2023-12-04T11:18:31;11.20;40.70
28548;DHT22;68292;49.600;8.746;2023-12-04T11:21:08;11.20;40.60
28548;DHT22;68292;49.600;8.746;2023-12-04T11:23:37;11.20;40.80
28548;DHT22;68292;49.600;8.746;2023-12-04T11:26:08;11.20;41.10
28548;DHT22;68292;49.600;8.746;2023-12-04T11:28:39;11.30;41.20
28548;DHT22;68292;49.600;8.746;2023-12-04T11:31:08;11.30;41.10
28548;DHT22;68292;49.600;8.746;2023-12-04T11:33:37;11.30;41.10
28548;DHT22;68292;49.600;8.746;2023-12-04T11:36:08;11.30;41.20
28548;DHT22;68292;49.600;8.746;2023-12-04T11:38:44;11.30;41.40
28548;DHT22;68292;49.600;8.746;2023-12-04T11:41:15;11.30;42.30
28548;DHT22;68292;49.600;8.746;2023-12-04T11:43:52;11.30;41.80
28548;DHT22;68292;49.600;8.746;2023-12-04T11:46:25;11.30;42.00
28548;DHT22;68292;49.600;8.746;2023-12-04T11:48:55;11.30;41.90
28548;DHT22;68292;49.600;8.746;2023-12-04T11:51:46;11.30;42.00
28548;DHT22;68292;49.600;8.746;2023-12-04T11:54:20;11.30;42.50
28548;DHT22;68292;49.600;8.746;2023-12-04T11:57:00;11.30;42.20
28548;DHT22;68292;49.600;8.746;2023-12-04T11:59:49;11.30;42.50
28548;DHT22;68292;49.600;8.746;2023-12-04T12:02:17;11.30;42.50
28548;DHT22;68292;49.600;8.746;2023-12-04T12:04:47;11.20;42.50
28548;DHT22;68292;49.600;8.746;2023-12-04T12:07:16;11.20;42.60
28548;DHT22;68292;49.600;8.746;2023-12-04T12:09:45;11.20;42.80
28548;DHT22;68292;49.600;8.746;2023-12-04T12:12:16;11.10;42.90
28548;DHT22;68292;49.600;8.746;2023-12-04T12:14:45;11.10;43.20
28548;DHT22;68292;49.600;8.746;2023-12-04T12:17:16;11.10;43.50
28548;DHT22;68292;49.600;8.746;2023-12-04T12:19:44;11.10;43.90
28548;DHT22;68292;49.600;8.746;2023-12-04T12:22:14;11.10;43.80
28548;DHT22;68292;49.600;8.746;2023-12-04T12:24:43;11.10;44.00
28548;DHT22;68292;49.600;8.746;2023-12-04T12:27:12;11.10;44.00
28548;DHT22;68292;49.600;8.746;2023-12-04T12:29:41;11.00;44.00
28548;DHT22;68292;49.600;8.746;2023-12-04T12:32:10;11.00;43.90
28548;DHT22;68292;49.600;8.746;2023-12-04T12:34:40;11.10;44.00
28548;DHT22;68292;49.600;8.746;2023-12-04T12:37:09;11.00;44.10
28548;DHT22;68292;49.600;8.746;2023-12-04T12:39:39;11.00;44.00
28548;DHT22;68292;49.600;8.746;2023-12-04T12:42:08;11.00;44.20
28548;DHT22;68292;49.600;8.746;2023-12-04T12:44:38;11.00;44.20
28548;DHT22;68292;49.600;8.746;2023-12-04T12:47:08;11.00;44.30
28548;DHT22;68292;49.600;8.746;2023-12-04T12:49:39;11.00;44.40
28548;DHT22;68292;49.600;8.746;2023-12-04T12:52:10;11.00;44.50
28548;DHT22;68292;49.600;8.746;2023-12-04T12:54:40;11.00;44.50
28548;DHT22;68292;49.600;8.746;2023-12-04T12:57:10;11.00;44.50
28548;DHT22;68292;49.600;8.746;2023-12-04T12:59:40;11.00;44.50
28548;DHT22;68292;49.600;8.746;2023-12-04T13:02:08;11.00;45.20
28548;DHT22;68292;49.600;8.746;2023-12-04T13:04:41;11.00;44.60
28548;DHT22;68292;49.600;8.746;2023-12-04T13:07:11;10.90;44.70
28548;DHT22;68292;49.600;8.746;2023-12-04T13:09:39;10.90;44.70
28548;DHT22;68292;49.600;8.746;2023-12-04T13:12:09;10.90;44.90
28548;DHT22;68292;49.600;8.746;2023-12-04T13:14:38;10.90;45.10
28548;DHT22;68292;49.600;8.746;2023-12-04T13:17:07;10.80;45.40
28548;DHT22;68292;49.600;8.746;2023-12-04T13:19:37;10.80;45.60
28548;DHT22;68292;49.600;8.746;2023-12-04T13:22:07;10.80;45.90
28548;DHT22;68292;49.600;8.746;2023-12-04T13:24:37;10.80;46.30
28548;DHT22;68292;49.600;8.746;2023-12-04T13:27:05;10.70;46.40
28548;DHT22;68292;49.600;8.746;2023-12-04T13:29:38;10.70;46.50
28548;DHT22;68292;49.600;8.746;2023-12-04T13:32:09;10.70;46.50
28548;DHT22;68292;49.600;8.746;2023-12-04T13:34:38;10.70;46.70
28548;DHT22;68292;49.600;8.746;2023-12-04T13:37:08;10.70;46.90
28548;DHT22;68292;49.600;8.746;2023-12-04T13:39:38;10.60;47.20
28548;DHT22;68292;49.600;8.746;2023-12-04T13:42:15;10.60;46.80
28548;DHT22;68292;49.600;8.746;2023-12-04T13:45:02;10.60;46.80
28548;DHT22;68292;49.600;8.746;2023-12-04T13:47:36;10.50;46.80
28548;DHT22;68292;49.600;8.746;2023-12-04T13:50:06;10.50;46.80
28548;DHT22;68292;49.600;8.746;2023-12-04T13:52:38;10.50;46.90
28548;DHT22;68292;49.600;8.746;2023-12-04T13:55:08;10.50;47.10
28548;DHT22;68292;49.600;8.746;2023-12-04T13:57:43;10.50;47.20
28548;DHT22;68292;49.600;8.746;2023-12-04T14:00:24;10.50;47.20
28548;DHT22;68292;49.600;8.746;2023-12-04T14:02:53;10.50;47.30
28548;DHT22;68292;49.600;8.746;2023-12-04T14:05:31;10.50;47.30
28548;DHT22;68292;49.600;8.746;2023-12-04T14:08:04;10.50;47.30
28548;DHT22;68292;49.600;8.746;2023-12-04T14:10:34;10.50;47.60
28548;DHT22;68292;49.600;8.746;2023-12-04T14:13:02;10.50;47.30
28548;DHT22;68292;49.600;8.746;2023-12-04T14:15:31;10.60;47.40
28548;DHT22;68292;49.600;8.746;2023-12-04T14:18:00;10.60;47.40
28548;DHT22;68292;49.600;8.746;2023-12-04T14:20:30;10.60;47.30
28548;DHT22;68292;49.600;8.746;2023-12-04T14:22:58;10.60;47.40
28548;DHT22;68292;49.600;8.746;2023-12-04T14:25:28;10.60;47.50
28548;DHT22;68292;49.600;8.746;2023-12-04T14:27:57;10.60;47.70
28548;DHT22;68292;49.600;8.746;2023-12-04T14:30:26;10.60;47.50
28548;DHT22;68292;49.600;8.746;2023-12-04T14:32:55;10.70;47.70
28548;DHT22;68292;49.600;8.746;2023-12-04T14:35:24;10.70;47.70
28548;DHT22;68292;49.600;8.746;2023-12-04T14:37:53;10.70;47.70
28548;DHT22;68292;49.600;8.746;2023-12-04T14:40:21;10.70;47.70
28548;DHT22;68292;49.600;8.746;2023-12-04T14:42:52;10.80;47.80
28548;DHT22;68292;49.600;8.746;2023-12-04T14:45:20;10.70;48.10
28548;DHT22;68292;49.600;8.746;2023-12-04T14:47:49;10.70;48.10
28548;DHT22;68292;49.600;8.746;2023-12-04T14:50:22;10.80;48.10
28548;DHT22;68292;49.600;8.746;2023-12-04T14:52:51;10.80;48.10
28548;DHT22;68292;49.600;8.746;2023-12-04T14:55:23;10.80;48.20
28548;DHT22;68292;49.600;8.746;2023-12-04T14:58:12;10.80;48.20
28548;DHT22;68292;49.600;8.746;2023-12-04T15:01:11;10.80;48.30
28548;DHT22;68292;49.600;8.746;2023-12-04T15:03:54;10.90;48.20
28548;DHT22;68292;49.600;8.746;2023-12-04T15:06:37;10.90;48.20
28548;DHT22;68292;49.600;8.746;2023-12-04T15:09:32;10.90;48.10
28548;DHT22;68292;49.600;8.746;2023-12-04T15:12:39;10.90;48.40
28548;DHT22;68292;49.600;8.746;2023-12-04T15:15:35;11.00;48.10
28548;DHT22;68292;49.600;8.746;2023-12-04T15:18:26;11.00;48.30
28548;DHT22;68292;49.600;8.746;2023-12-04T15:21:02;11.00;48.20
28548;DHT22;68292;49.600;8.746;2023-12-04T15:23:31;11.00;48.30
28548;DHT22;68292;49.600;8.746;2023-12-04T15:25:59;11.00;48.40
28548;DHT22;68292;49.600;8.746;2023-12-04T15:28:28;11.00;48.40
28548;DHT22;68292;49.600;8.746;2023-12-04T15:30:58;11.00;48.60
28548;DHT22;68292;49.600;8.746;2023-12-04T15:33:27;11.10;48.80
28548;DHT22;68292;49.600;8.746;2023-12-04T15:35:58;11.10;48.70
28548;DHT22;68292;49.600;8.746;2023-12-04T15:38:26;11.10;48.70
28548;DHT22;68292;49.600;8.746;2023-12-04T15:40:58;11.10;48.70
28548;DHT22;68292;49.600;8.746;2023-12-04T15:43:28;11.10;48.70
28548;DHT22;68292;49.600;8.746;2023-12-04T15:45:57;11.20;48.80
28548;DHT22;68292;49.600;8.746;2023-12-04T15:48:26;11.20;48.70
28548;DHT22;68292;49.600;8.746;2023-12-04T15:50:57;11.20;48.70
28548;DHT22;68292;49.600;8.746;2023-12-04T15:53:26;11.20;48.70
28548;DHT22;68292;49.600;8.746;2023-12-04T15:55:54;11.20;48.70
28548;DHT22;68292;49.600;8.746;2023-12-04T15:58:23;11.30;48.80